Time;durP1;ratioP1;P1;durP2;ratioP2;P2;SDS_P1;SDS_P2;PMS_P1;PMS_P2;Temp;Humidity;BMP_temperature;BMP_pressure;BME280_temperature;BME280_humidity;BME280_pressure;Samples;Min_cycle;Max_cycle;Signal;HPM_P1;HPM_P2
2021/05/27 00:03:16;;;;;;;7.82;2.75;;;;;;;;;;8273731;28;20079;-66
2021/05/27 00:07:20;;;;;;;7.75;3.17;;;;;;;;;;8291383;28;20383;-66
2021/05/27 00:11:25;;;;;;;8.77;3.63;;;;;;;;;;8291287;28;20467;-66
2021/05/27 00:15:32;;;;;;;13.00;3.45;;;;;;;;;;8291826;28;20486;-66
2021/05/27 00:19:37;;;;;;;11.63;4.38;;;;;;;;;;8290195;28;20375;-66
2021/05/27 00:23:42;;;;;;;11.02;3.13;;;;;;;;;;8290637;28;20357;-66
2021/05/27 00:27:48;;;;;;;11.18;3.03;;;;;;;;;;8290954;28;20466;-66
2021/05/27 00:31:53;;;;;;;5.50;2.65;;;;;;;;;;8290861;28;20402;-66
2021/05/27 00:35:58;;;;;;;7.15;2.65;;;;;;;;;;8296681;28;20452;-66
2021/05/27 00:40:09;;;;;;;11.15;2.13;;;;;;;;;;8297392;28;20375;-66
2021/05/27 00:44:26;;;;;;;6.97;2.20;;;;;;;;;;8307871;28;20056;-66
2021/05/27 00:52:57;;;;;;;5.65;2.25;;;;;;;;;;8331934;28;20366;-67
2021/05/27 00:57:07;;;;;;;7.85;2.58;;;;;;;;;;8297892;28;20422;-66
2021/05/27 01:01:13;;;;;;;5.00;2.38;;;;;;;;;;8312420;28;20060;-66
2021/05/27 01:05:18;;;;;;;5.22;2.20;;;;;;;;;;8329844;28;20447;-66
2021/05/27 01:09:23;;;;;;;5.65;2.25;;;;;;;;;;8310275;28;20074;-66
2021/05/27 01:13:28;;;;;;;6.65;1.90;;;;;;;;;;8327219;28;20471;-66
2021/05/27 01:17:37;;;;;;;5.32;2.45;;;;;;;;;;8330463;28;20367;-66
2021/05/27 01:21:46;;;;;;;6.80;1.95;;;;;;;;;;8328087;28;20465;-65
2021/05/27 01:25:55;;;;;;;6.88;1.65;;;;;;;;;;8312753;28;20367;-66
2021/05/27 01:30:00;;;;;;;4.10;1.75;;;;;;;;;;8332871;28;20462;-66
2021/05/27 01:34:09;;;;;;;4.22;2.00;;;;;;;;;;8310678;28;20367;-66
2021/05/27 01:38:24;;;;;;;4.30;1.63;;;;;;;;;;8328641;28;20375;-65
2021/05/27 01:42:29;;;;;;;3.40;1.50;;;;;;;;;;8329346;28;20486;-66
2021/05/27 01:46:34;;;;;;;4.60;1.67;;;;;;;;;;8309098;28;20383;-66
2021/05/27 01:50:45;;;;;;;5.13;1.63;;;;;;;;;;8293871;28;20482;-66
2021/05/27 01:54:50;;;;;;;3.72;1.38;;;;;;;;;;8297716;28;20057;-66
2021/05/27 01:59:05;;;;;;;5.35;1.90;;;;;;;;;;8296686;28;20459;-66
2021/05/27 02:03:17;;;;;;;3.88;1.67;;;;;;;;;;8294638;28;20490;-66
2021/05/27 02:07:29;;;;;;;3.38;1.40;;;;;;;;;;8310023;28;20379;-66
2021/05/27 02:11:42;;;;;;;2.33;1.33;;;;;;;;;;8309867;28;20348;-66
2021/05/27 02:15:47;;;;;;;2.55;1.20;;;;;;;;;;8292395;28;20413;-66
2021/05/27 02:19:52;;;;;;;3.00;1.08;;;;;;;;;;8293626;28;20370;-66
2021/05/27 02:24:00;;;;;;;1.80;0.95;;;;;;;;;;8295466;28;20466;-66
2021/05/27 02:28:05;;;;;;;1.35;0.57;;;;;;;;;;8309303;28;20486;-65
2021/05/27 02:32:11;;;;;;;1.52;0.60;;;;;;;;;;8292248;28;20506;-66
2021/05/27 02:36:18;;;;;;;1.73;0.70;;;;;;;;;;8309067;28;20348;-66
2021/05/27 02:40:24;;;;;;;0.55;0.50;;;;;;;;;;8292660;28;20382;-66
2021/05/27 02:44:29;;;;;;;1.80;0.52;;;;;;;;;;8320677;28;20466;-66
2021/05/27 02:48:35;;;;;;;2.13;0.80;;;;;;;;;;8326236;28;20467;-66
2021/05/27 02:52:39;;;;;;;1.42;0.55;;;;;;;;;;8309122;28;20474;-65
2021/05/27 02:56:45;;;;;;;1.50;0.60;;;;;;;;;;8327950;28;20052;-66
2021/05/27 03:00:56;;;;;;;5.13;0.85;;;;;;;;;;8307592;28;20074;-66
2021/05/27 03:05:03;;;;;;;0.70;0.50;;;;;;;;;;8323825;28;20383;-65
2021/05/27 03:09:10;;;;;;;2.85;0.40;;;;;;;;;;8326002;28;20443;-66
2021/05/27 03:13:15;;;;;;;0.85;0.55;;;;;;;;;;8307590;28;20469;-66
2021/05/27 03:17:24;;;;;;;0.63;0.40;;;;;;;;;;8308209;28;20493;-66
2021/05/27 03:21:31;;;;;;;1.20;0.60;;;;;;;;;;8306643;28;20485;-66
2021/05/27 03:25:36;;;;;;;0.57;0.40;;;;;;;;;;8325064;28;20048;-67
2021/05/27 03:29:42;;;;;;;1.42;0.60;;;;;;;;;;8324902;28;20379;-66
2021/05/27 03:33:49;;;;;;;1.38;1.02;;;;;;;;;;8324581;28;20650;-66
2021/05/27 03:37:54;;;;;;;1.77;0.73;;;;;;;;;;8324818;28;20431;-66
2021/05/27 03:42:00;;;;;;;1.60;1.10;;;;;;;;;;8326515;28;20370;-67
2021/05/27 03:46:08;;;;;;;4.25;0.80;;;;;;;;;;8273490;28;20375;-67
2021/05/27 03:50:17;;;;;;;0.60;0.40;;;;;;;;;;8290942;28;20447;-66
2021/05/27 03:54:23;;;;;;;0.88;0.63;;;;;;;;;;8291506;28;20463;-66
2021/05/27 04:03:08;;;;;;;0.98;0.60;;;;;;;;;;8240135;28;20379;-67
2021/05/27 04:07:20;;;;;;;1.75;0.80;;;;;;;;;;8306229;28;20394;-66
2021/05/27 04:11:26;;;;;;;2.20;1.00;;;;;;;;;;8291036;28;20082;-66
2021/05/27 04:15:36;;;;;;;1.55;0.90;;;;;;;;;;8291032;28;20478;-66
2021/05/27 04:19:41;;;;;;;2.55;0.77;;;;;;;;;;8290364;28;20497;-66
2021/05/27 04:23:46;;;;;;;3.22;0.77;;;;;;;;;;8292433;28;20435;-66
2021/05/27 04:27:52;;;;;;;2.88;0.85;;;;;;;;;;8289042;28;20410;-66
2021/05/27 04:31:59;;;;;;;2.33;0.52;;;;;;;;;;8290501;28;20459;-66
2021/05/27 04:36:04;;;;;;;1.42;0.60;;;;;;;;;;8291007;28;20459;-66
2021/05/27 04:40:10;;;;;;;1.05;0.50;;;;;;;;;;8290143;28;20056;-66
2021/05/27 04:44:15;;;;;;;1.98;0.70;;;;;;;;;;8315833;28;20352;-66
2021/05/27 04:48:21;;;;;;;2.22;0.80;;;;;;;;;;8323352;28;20048;-66
2021/05/27 04:52:26;;;;;;;1.58;0.85;;;;;;;;;;8323267;28;20055;-66
2021/05/27 04:56:31;;;;;;;1.35;0.68;;;;;;;;;;8323193;28;20052;-66
2021/05/27 05:00:36;;;;;;;9.10;1.00;;;;;;;;;;8305451;28;20397;-66
2021/05/27 05:04:41;;;;;;;3.63;1.35;;;;;;;;;;8322742;28;20624;-66
2021/05/27 05:08:46;;;;;;;1.55;0.80;;;;;;;;;;8304675;28;20336;-66
2021/05/27 05:12:52;;;;;;;3.17;1.20;;;;;;;;;;8322718;28;20367;-66
2021/05/27 05:16:57;;;;;;;2.83;1.15;;;;;;;;;;8322368;28;20355;-66
2021/05/27 05:21:02;;;;;;;3.47;0.68;;;;;;;;;;8324705;28;20082;-66
2021/05/27 05:25:08;;;;;;;3.90;1.58;;;;;;;;;;8329366;28;20070;-67
2021/05/27 05:29:12;;;;;;;1.95;0.90;;;;;;;;;;8329741;28;20389;-66
2021/05/27 05:33:16;;;;;;;1.75;0.60;;;;;;;;;;8328912;28;20354;-67
2021/05/27 05:37:21;;;;;;;2.70;0.77;;;;;;;;;;8330346;28;20468;-66
2021/05/27 05:41:26;;;;;;;4.25;0.80;;;;;;;;;;8328201;28;20075;-66
2021/05/27 05:45:30;;;;;;;3.85;0.70;;;;;;;;;;8327435;28;20482;-66
2021/05/27 05:49:36;;;;;;;1.25;0.80;;;;;;;;;;8312007;28;20474;-67
2021/05/27 05:53:41;;;;;;;4.15;1.17;;;;;;;;;;8328584;28;20453;-66
2021/05/27 05:57:46;;;;;;;4.80;1.25;;;;;;;;;;8327450;28;20056;-67
2021/05/27 06:01:51;;;;;;;5.07;1.92;;;;;;;;;;8327554;28;20455;-66
2021/05/27 06:05:57;;;;;;;4.40;1.92;;;;;;;;;;8310051;28;20485;-66
2021/05/27 06:10:11;;;;;;;2.53;1.13;;;;;;;;;;8309124;28;20573;-67
2021/05/27 06:14:16;;;;;;;3.40;1.10;;;;;;;;;;8326830;28;20435;-66
2021/05/27 06:18:20;;;;;;;3.20;1.10;;;;;;;;;;8328875;28;20356;-67
2021/05/27 06:22:59;;;;;;;4.97;1.10;;;;;;;;;;8309943;28;20517;-66
2021/05/27 06:27:04;;;;;;;5.45;2.15;;;;;;;;;;8326496;28;20363;-67
2021/05/27 06:31:09;;;;;;;6.78;1.67;;;;;;;;;;8326587;28;20078;-67
2021/05/27 06:35:15;;;;;;;12.75;1.58;;;;;;;;;;8327672;28;20478;-68
2021/05/27 06:39:20;;;;;;;3.75;1.10;;;;;;;;;;8310239;28;20459;-67
2021/05/27 06:43:25;;;;;;;2.90;1.10;;;;;;;;;;8326405;28;20389;-67
2021/05/27 06:47:28;;;;;;;3.10;0.80;;;;;;;;;;8327820;28;20409;-66
2021/05/27 06:51:35;;;;;;;3.40;1.20;;;;;;;;;;8326712;28;20099;-67
2021/05/27 06:55:47;;;;;;;8.32;1.27;;;;;;;;;;8310698;28;20397;-68
2021/05/27 06:59:53;;;;;;;2.58;0.90;;;;;;;;;;8325351;28;20433;-67
2021/05/27 07:03:57;;;;;;;3.05;1.08;;;;;;;;;;8325624;28;20459;-67
2021/05/27 07:08:04;;;;;;;4.25;1.10;;;;;;;;;;8309207;28;20347;-68
2021/05/27 07:12:09;;;;;;;4.10;1.10;;;;;;;;;;8325662;28;20518;-68
2021/05/27 07:16:15;;;;;;;10.27;1.55;;;;;;;;;;8328765;28;20478;-67
2021/05/27 07:20:22;;;;;;;3.40;1.20;;;;;;;;;;8325179;28;20393;-67
2021/05/27 07:24:28;;;;;;;2.70;1.20;;;;;;;;;;8326127;28;20475;-67
2021/05/27 07:28:33;;;;;;;3.10;1.23;;;;;;;;;;8324673;28;20505;-66
2021/05/27 07:32:38;;;;;;;1.75;0.60;;;;;;;;;;8324669;28;20455;-67
2021/05/27 07:36:43;;;;;;;1.80;1.05;;;;;;;;;;8325100;28;20340;-67
2021/05/27 07:40:49;;;;;;;2.22;0.50;;;;;;;;;;8325390;28;20489;-67
2021/05/27 07:44:54;;;;;;;3.20;0.60;;;;;;;;;;8323735;28;20413;-67
2021/05/27 07:49:00;;;;;;;1.00;0.63;;;;;;;;;;8324758;28;20390;-66
2021/05/27 07:53:07;;;;;;;2.38;1.27;;;;;;;;;;8325783;28;20383;-68
2021/05/27 07:57:10;;;;;;;4.85;1.98;;;;;;;;;;8324915;28;20044;-67
2021/05/27 08:01:15;;;;;;;2.53;0.93;;;;;;;;;;8328728;28;20398;-67
2021/05/27 08:05:20;;;;;;;3.47;1.10;;;;;;;;;;8329119;28;20443;-68
2021/05/27 08:09:25;;;;;;;1.90;0.75;;;;;;;;;;8326290;28;20463;-67
2021/05/27 08:13:31;;;;;;;2.45;0.80;;;;;;;;;;8309088;28;20477;-67
2021/05/27 08:17:37;;;;;;;2.53;0.90;;;;;;;;;;8328649;28;20070;-67
2021/05/27 08:21:42;;;;;;;1.92;0.85;;;;;;;;;;8325212;28;20169;-66
2021/05/27 08:25:47;;;;;;;3.95;0.60;;;;;;;;;;8306009;28;20047;-68
2021/05/27 08:29:52;;;;;;;2.92;1.05;;;;;;;;;;8323208;28;20052;-67
2021/05/27 08:33:57;;;;;;;3.53;1.20;;;;;;;;;;8322221;28;20480;-67
2021/05/27 08:38:03;;;;;;;1.50;0.80;;;;;;;;;;8324448;28;20060;-68
2021/05/27 08:42:12;;;;;;;2.17;0.73;;;;;;;;;;8324481;28;20056;-67
2021/05/27 08:46:18;;;;;;;2.63;0.77;;;;;;;;;;8289070;28;20427;-68
2021/05/27 08:50:30;;;;;;;2.63;0.88;;;;;;;;;;8293556;28;20366;-67
2021/05/27 08:54:35;;;;;;;3.53;0.90;;;;;;;;;;8288896;28;20382;-67
2021/05/27 08:58:41;;;;;;;2.53;0.90;;;;;;;;;;8296369;28;20071;-67
2021/05/27 09:03:00;;;;;;;1.35;0.50;;;;;;;;;;8296930;28;20490;-67
2021/05/27 09:07:07;;;;;;;3.00;0.50;;;;;;;;;;8298870;28;20383;-67
2021/05/27 09:11:15;;;;;;;2.35;0.88;;;;;;;;;;8297868;28;20083;-66
2021/05/27 09:15:24;;;;;;;2.65;0.80;;;;;;;;;;8294245;28;20421;-67
2021/05/27 09:19:29;;;;;;;1.63;0.60;;;;;;;;;;8293644;28;20383;-66
2021/05/27 09:23:37;;;;;;;3.75;0.70;;;;;;;;;;8296073;28;20052;-67
2021/05/27 09:27:47;;;;;;;4.43;1.13;;;;;;;;;;8295885;28;20363;-67
2021/05/27 09:31:57;;;;;;;1.40;0.70;;;;;;;;;;8294671;28;20476;-67
2021/05/27 09:36:17;;;;;;;3.90;0.80;;;;;;;;;;8295738;28;20479;-67
2021/05/27 09:40:42;;;;;;;2.08;0.63;;;;;;;;;;8296707;28;20364;-67
2021/05/27 09:44:47;;;;;;;1.38;0.65;;;;;;;;;;8325051;28;20052;-67
2021/05/27 09:49:08;;;;;;;0.77;0.40;;;;;;;;;;8327437;28;20051;-67
2021/05/27 09:53:16;;;;;;;2.83;0.80;;;;;;;;;;8328377;28;20471;-67
2021/05/27 09:57:28;;;;;;;1.55;0.65;;;;;;;;;;8310274;28;20465;-67
2021/05/27 10:01:33;;;;;;;3.25;1.00;;;;;;;;;;8326886;28;20478;-67
2021/05/27 10:05:47;;;;;;;2.85;1.20;;;;;;;;;;8328372;28;20471;-68
2021/05/27 10:09:52;;;;;;;3.03;0.98;;;;;;;;;;8327960;28;20379;-66
2021/05/27 10:14:00;;;;;;;3.08;1.25;;;;;;;;;;8309798;28;20474;-67
2021/05/27 10:18:05;;;;;;;2.83;1.23;;;;;;;;;;8327455;28;20382;-67
2021/05/27 10:22:10;;;;;;;2.30;0.77;;;;;;;;;;8326865;28;20439;-66
2021/05/27 10:26:15;;;;;;;1.90;0.80;;;;;;;;;;8309616;28;20483;-67
2021/05/27 10:30:43;;;;;;;5.53;0.90;;;;;;;;;;8326353;28;20353;-67
2021/05/27 10:34:51;;;;;;;2.92;0.80;;;;;;;;;;8308539;28;20493;-67
2021/05/27 10:38:56;;;;;;;2.15;1.13;;;;;;;;;;8309973;28;20374;-70
2021/05/27 10:43:05;;;;;;;1.90;0.80;;;;;;;;;;8328132;28;20473;-67
2021/05/27 10:47:09;;;;;;;3.90;0.90;;;;;;;;;;8260128;28;20468;-67
2021/05/27 10:51:35;;;;;;;2.95;0.52;;;;;;;;;;8262925;28;21008;-66
2021/05/27 10:55:54;;;;;;;2.90;0.88;;;;;;;;;;8260539;28;20376;-66
2021/05/27 11:00:00;;;;;;;2.53;0.93;;;;;;;;;;8259490;28;20100;-67
2021/05/27 11:04:07;;;;;;;2.17;0.75;;;;;;;;;;8275740;28;20356;-67
2021/05/27 11:08:20;;;;;;;1.50;0.70;;;;;;;;;;8259836;28;20456;-67
2021/05/27 11:12:29;;;;;;;2.75;1.60;;;;;;;;;;8260327;28;20468;-67
2021/05/27 11:16:34;;;;;;;1.92;0.80;;;;;;;;;;8258452;28;20528;-67
2021/05/27 11:20:46;;;;;;;2.92;0.82;;;;;;;;;;8258386;28;20391;-66
2021/05/27 11:25:10;;;;;;;4.43;0.85;;;;;;;;;;8259777;28;20350;-67
2021/05/27 11:29:15;;;;;;;1.63;0.88;;;;;;;;;;8259981;28;20448;-67
2021/05/27 11:33:21;;;;;;;1.00;0.70;;;;;;;;;;8260272;28;20444;-67
2021/05/27 11:37:26;;;;;;;1.10;0.70;;;;;;;;;;8261312;28;20448;-67
2021/05/27 11:41:38;;;;;;;2.03;1.00;;;;;;;;;;8260727;28;20048;-67
2021/05/27 11:45:50;;;;;;;1.55;0.70;;;;;;;;;;8301909;28;20494;-66
2021/05/27 11:50:13;;;;;;;2.33;0.75;;;;;;;;;;8326022;28;20056;-67
2021/05/27 11:54:18;;;;;;;5.68;1.10;;;;;;;;;;8323661;28;20052;-66
2021/05/27 11:58:38;;;;;;;3.03;0.90;;;;;;;;;;8323401;28;20370;-66
2021/05/27 12:02:49;;;;;;;1.45;0.80;;;;;;;;;;8326499;28;20357;-67
2021/05/27 12:07:11;;;;;;;1.98;0.85;;;;;;;;;;8306233;28;20048;-66
2021/05/27 12:11:15;;;;;;;1.05;0.60;;;;;;;;;;8305645;28;20414;-66
2021/05/27 12:15:22;;;;;;;2.42;0.98;;;;;;;;;;8306928;28;20075;-66
2021/05/27 12:19:28;;;;;;;1.85;0.60;;;;;;;;;;8325607;28;20052;-66
2021/05/27 12:23:33;;;;;;;1.27;0.98;;;;;;;;;;8325035;28;20495;-67
2021/05/27 12:27:45;;;;;;;0.85;0.60;;;;;;;;;;8322347;28;20377;-66
2021/05/27 12:31:51;;;;;;;3.28;0.80;;;;;;;;;;8323174;28;20378;-68
2021/05/27 12:35:57;;;;;;;1.20;0.90;;;;;;;;;;8306309;28;20466;-66
2021/05/27 12:40:09;;;;;;;3.13;0.70;;;;;;;;;;8323888;28;20048;-67
2021/05/27 12:44:13;;;;;;;1.48;0.90;;;;;;;;;;8305371;28;20391;-66
2021/05/27 12:48:24;;;;;;;1.55;0.60;;;;;;;;;;8322526;28;20060;-67
2021/05/27 12:52:42;;;;;;;7.30;1.20;;;;;;;;;;8323507;28;20066;-67
2021/05/27 12:57:10;;;;;;;1.40;0.65;;;;;;;;;;8324160;28;20367;-66
2021/05/27 13:01:18;;;;;;;3.80;1.05;;;;;;;;;;8305243;28;20474;-66
2021/05/27 13:05:23;;;;;;;4.85;1.10;;;;;;;;;;8304847;28;20391;-67
2021/05/27 13:09:28;;;;;;;4.80;1.10;;;;;;;;;;8325058;28;20078;-66
2021/05/27 13:13:36;;;;;;;1.73;0.90;;;;;;;;;;8322918;28;20435;-66
2021/05/27 13:17:41;;;;;;;4.45;0.90;;;;;;;;;;8306065;28;20451;-66
2021/05/27 13:21:51;;;;;;;3.03;1.40;;;;;;;;;;8306333;28;20078;-66
2021/05/27 13:26:20;;;;;;;2.83;1.52;;;;;;;;;;8323224;28;20458;-66
2021/05/27 13:30:30;;;;;;;3.10;1.50;;;;;;;;;;8307237;28;20056;-67
2021/05/27 13:34:41;;;;;;;4.95;0.90;;;;;;;;;;8323295;28;20055;-66
2021/05/27 13:38:50;;;;;;;1.70;0.60;;;;;;;;;;8321921;28;20411;-66
2021/05/27 13:42:56;;;;;;;4.03;0.90;;;;;;;;;;8311061;28;20405;-67
2021/05/27 13:47:01;;;;;;;4.13;1.20;;;;;;;;;;8313679;28;20336;-67
2021/05/27 13:51:08;;;;;;;4.25;1.00;;;;;;;;;;8312527;28;20051;-67
2021/05/27 13:55:16;;;;;;;2.40;0.82;;;;;;;;;;8311125;28;20078;-67
2021/05/27 13:59:22;;;;;;;3.35;0.95;;;;;;;;;;8328476;28;20367;-67
2021/05/27 14:03:29;;;;;;;2.92;1.00;;;;;;;;;;8330264;28;20459;-67
2021/05/27 14:07:34;;;;;;;3.65;0.80;;;;;;;;;;8326498;28;20048;-67
2021/05/27 14:11:39;;;;;;;2.63;1.40;;;;;;;;;;8327124;28;20451;-66
2021/05/27 14:15:44;;;;;;;3.88;2.28;;;;;;;;;;8327941;28;20048;-67
2021/05/27 14:19:49;;;;;;;2.03;1.02;;;;;;;;;;8328001;28;20352;-67
2021/05/27 14:23:54;;;;;;;3.22;1.10;;;;;;;;;;8309533;28;20478;-67
2021/05/27 14:27:59;;;;;;;3.35;1.55;;;;;;;;;;8329907;28;20386;-67
2021/05/27 14:32:04;;;;;;;6.97;1.15;;;;;;;;;;8331219;28;20425;-67
2021/05/27 14:36:09;;;;;;;3.05;1.48;;;;;;;;;;8327491;28;20471;-66
2021/05/27 14:40:15;;;;;;;6.00;2.33;;;;;;;;;;8308737;28;20354;-66
2021/05/27 14:44:20;;;;;;;5.65;2.80;;;;;;;;;;8328025;28;20391;-66
2021/05/27 14:48:25;;;;;;;12.35;5.95;;;;;;;;;;8329704;28;20459;-66
2021/05/27 14:52:30;;;;;;;7.78;3.08;;;;;;;;;;8329265;28;20056;-67
2021/05/27 14:56:35;;;;;;;3.17;1.67;;;;;;;;;;8323766;28;20078;-67
2021/05/27 15:00:42;;;;;;;2.75;1.13;;;;;;;;;;8309543;28;20455;-66
2021/05/27 15:04:47;;;;;;;4.88;1.95;;;;;;;;;;8325226;28;20421;-67
2021/05/27 15:08:52;;;;;;;3.10;1.63;;;;;;;;;;8307229;28;20076;-67
2021/05/27 15:12:59;;;;;;;1.73;0.95;;;;;;;;;;8327622;28;20374;-67
2021/05/27 15:17:04;;;;;;;8.00;2.35;;;;;;;;;;8308149;28;20073;-67
2021/05/27 15:21:09;;;;;;;6.18;3.00;;;;;;;;;;8325257;28;20048;-66
2021/05/27 15:25:17;;;;;;;4.45;1.50;;;;;;;;;;8309491;28;20075;-67
2021/05/27 15:29:42;;;;;;;2.92;1.27;;;;;;;;;;8327350;28;20354;-67
2021/05/27 15:33:48;;;;;;;2.47;1.20;;;;;;;;;;8325813;28;20480;-66
2021/05/27 15:37:54;;;;;;;3.90;1.70;;;;;;;;;;8323939;28;20457;-67
2021/05/27 15:41:59;;;;;;;10.10;1.50;;;;;;;;;;8307058;28;20395;-67
2021/05/27 15:46:04;;;;;;;3.65;1.42;;;;;;;;;;8323654;28;20478;-67
2021/05/27 15:50:10;;;;;;;3.22;1.02;;;;;;;;;;8324628;28;20485;-66
2021/05/27 15:54:16;;;;;;;10.52;1.10;;;;;;;;;;8307873;28;20753;-66
2021/05/27 15:58:21;;;;;;;1.90;0.65;;;;;;;;;;8325157;28;20489;-67
2021/05/27 16:02:29;;;;;;;4.28;1.10;;;;;;;;;;8323224;28;20070;-67
2021/05/27 16:06:34;;;;;;;3.88;0.90;;;;;;;;;;8323126;28;20056;-66
2021/05/27 16:10:39;;;;;;;2.15;0.65;;;;;;;;;;8323904;28;20047;-66
2021/05/27 16:14:44;;;;;;;3.45;0.90;;;;;;;;;;8322371;28;20647;-67
2021/05/27 16:18:49;;;;;;;1.55;0.70;;;;;;;;;;8325180;28;20429;-67
2021/05/27 16:22:54;;;;;;;1.73;0.90;;;;;;;;;;8323493;28;20351;-66
2021/05/27 16:26:57;;;;;;;1.27;0.57;;;;;;;;;;8305265;28;20470;-67
2021/05/27 16:31:02;;;;;;;1.35;0.85;;;;;;;;;;8323246;28;20387;-67
2021/05/27 16:35:13;;;;;;;2.15;0.77;;;;;;;;;;8323683;28;20382;-66
2021/05/27 16:39:19;;;;;;;2.03;1.13;;;;;;;;;;8322538;28;20354;-67
2021/05/27 16:43:24;;;;;;;4.63;1.38;;;;;;;;;;8305829;28;20458;-67
2021/05/27 16:47:27;;;;;;;2.35;0.90;;;;;;;;;;8323301;28;20064;-67
2021/05/27 16:51:37;;;;;;;1.83;1.00;;;;;;;;;;8325038;28;20366;-67
2021/05/27 16:55:42;;;;;;;2.92;1.17;;;;;;;;;;8324619;28;20489;-67
2021/05/27 16:59:47;;;;;;;2.40;0.90;;;;;;;;;;8324617;28;20443;-67
2021/05/27 17:03:51;;;;;;;6.57;1.17;;;;;;;;;;8325044;28;20483;-66
2021/05/27 17:07:55;;;;;;;2.30;1.08;;;;;;;;;;8322561;28;20390;-66
2021/05/27 17:12:00;;;;;;;2.70;1.15;;;;;;;;;;8324874;28;20467;-66
2021/05/27 17:16:06;;;;;;;2.60;1.00;;;;;;;;;;8323772;28;20056;-66
2021/05/27 17:20:12;;;;;;;3.63;1.00;;;;;;;;;;8330564;28;20462;-67
2021/05/27 17:24:17;;;;;;;3.42;1.08;;;;;;;;;;8328565;28;20482;-67
2021/05/27 17:28:23;;;;;;;2.28;0.90;;;;;;;;;;8329595;28;20358;-67
2021/05/27 17:32:28;;;;;;;2.78;0.80;;;;;;;;;;8329036;28;20451;-68
2021/05/27 17:36:33;;;;;;;5.50;1.33;;;;;;;;;;8329260;28;20367;-67
2021/05/27 17:40:38;;;;;;;4.07;1.25;;;;;;;;;;8294016;28;20394;-67
2021/05/27 17:44:43;;;;;;;4.15;1.17;;;;;;;;;;8329114;28;20056;-67
2021/05/27 17:48:47;;;;;;;8.43;1.77;;;;;;;;;;8327104;28;20051;-67
2021/05/27 17:52:55;;;;;;;3.50;1.85;;;;;;;;;;8311585;28;20367;-68
2021/05/27 17:57:00;;;;;;;6.20;3.85;;;;;;;;;;8330230;28;20059;-67
2021/05/27 18:01:06;;;;;;;5.75;3.17;;;;;;;;;;8327913;28;20489;-67
2021/05/27 18:05:12;;;;;;;11.95;7.47;;;;;;;;;;8329044;28;20377;-67
2021/05/27 18:09:17;;;;;;;19.08;7.88;;;;;;;;;;8310327;28;20389;-67
2021/05/27 18:13:23;;;;;;;7.85;3.28;;;;;;;;;;8311771;28;20371;-67
2021/05/27 18:17:28;;;;;;;9.85;4.72;;;;;;;;;;8327792;28;20579;-66
2021/05/27 18:21:33;;;;;;;19.38;7.70;;;;;;;;;;8328099;28;20048;-67
2021/05/27 18:25:44;;;;;;;11.85;4.80;;;;;;;;;;8309113;28;20382;-67
2021/05/27 18:29:50;;;;;;;12.32;5.93;;;;;;;;;;8310265;28;20467;-67
2021/05/27 18:33:54;;;;;;;11.27;5.07;;;;;;;;;;8328303;28;20355;-67
2021/05/27 18:37:58;;;;;;;14.98;4.97;;;;;;;;;;8308403;28;20404;-67
2021/05/27 18:42:03;;;;;;;14.57;4.55;;;;;;;;;;8309697;28;20052;-67
2021/05/27 18:46:08;;;;;;;10.05;4.57;;;;;;;;;;8326530;28;20467;-67
2021/05/27 18:50:14;;;;;;;8.50;3.60;;;;;;;;;;8310113;28;20371;-66
2021/05/27 18:54:20;;;;;;;9.13;2.40;;;;;;;;;;8327714;28;20048;-67
2021/05/27 18:58:24;;;;;;;3.28;1.60;;;;;;;;;;8327219;28;20077;-67
2021/05/27 19:02:30;;;;;;;7.65;2.40;;;;;;;;;;8327037;28;20370;-67
2021/05/27 19:06:35;;;;;;;4.47;2.45;;;;;;;;;;8326106;28;20358;-67
2021/05/27 19:10:42;;;;;;;5.78;2.40;;;;;;;;;;8325709;28;20056;-66
2021/05/27 19:14:46;;;;;;;7.75;4.22;;;;;;;;;;8325840;28;20379;-68
2021/05/27 19:18:52;;;;;;;7.15;3.95;;;;;;;;;;8325760;28;20070;-67
2021/05/27 19:22:57;;;;;;;11.50;4.75;;;;;;;;;;8325371;28;20407;-67
2021/05/27 19:27:07;;;;;;;12.05;5.78;;;;;;;;;;8309366;28;20451;-67
2021/05/27 19:31:12;;;;;;;13.50;4.82;;;;;;;;;;8326130;28;20332;-67
2021/05/27 19:35:17;;;;;;;11.45;4.25;;;;;;;;;;8328184;28;20051;-67
2021/05/27 19:39:22;;;;;;;15.57;5.50;;;;;;;;;;8324990;28;20451;-66
2021/05/27 19:43:52;;;;;;;8.52;3.58;;;;;;;;;;8273112;28;20366;-66
2021/05/27 19:47:56;;;;;;;11.18;4.65;;;;;;;;;;8289373;28;20487;-67
2021/05/27 19:52:01;;;;;;;13.43;6.15;;;;;;;;;;8291766;28;20108;-67
2021/05/27 19:56:09;;;;;;;23.70;11.35;;;;;;;;;;8294489;28;20455;-67
2021/05/27 20:00:16;;;;;;;22.15;11.23;;;;;;;;;;8292825;28;20481;-66
2021/05/27 20:04:22;;;;;;;23.75;11.77;;;;;;;;;;8306603;28;20482;-67
2021/05/27 20:08:27;;;;;;;17.40;7.45;;;;;;;;;;8292044;28;20356;-67
2021/05/27 20:12:33;;;;;;;8.80;4.32;;;;;;;;;;8291486;28;20067;-67
2021/05/27 20:16:38;;;;;;;10.30;3.92;;;;;;;;;;8290341;28;20086;-67
2021/05/27 20:20:43;;;;;;;7.00;2.97;;;;;;;;;;8292066;28;20410;-66
2021/05/27 20:24:48;;;;;;;13.30;7.65;;;;;;;;;;8292208;28;20352;-66
2021/05/27 20:28:52;;;;;;;6.55;4.05;;;;;;;;;;8306053;28;20332;-67
2021/05/27 20:32:57;;;;;;;12.35;3.78;;;;;;;;;;8292106;28;20391;-67
2021/05/27 20:37:03;;;;;;;16.10;7.55;;;;;;;;;;8291032;28;20087;-66
2021/05/27 20:41:08;;;;;;;6.57;3.78;;;;;;;;;;8290239;28;20348;-66
2021/05/27 20:45:13;;;;;;;12.32;6.70;;;;;;;;;;8300091;28;20387;-67
2021/05/27 20:49:18;;;;;;;11.98;6.10;;;;;;;;;;8322664;28;20406;-67
2021/05/27 20:53:23;;;;;;;15.10;7.38;;;;;;;;;;8311795;28;20082;-66
2021/05/27 20:57:28;;;;;;;25.17;13.63;;;;;;;;;;8331765;28;20373;-67
2021/05/27 21:01:32;;;;;;;6.15;3.65;;;;;;;;;;8330278;28;20412;-66
2021/05/27 21:05:37;;;;;;;6.78;2.92;;;;;;;;;;8330477;28;20379;-66
2021/05/27 21:09:42;;;;;;;6.97;3.63;;;;;;;;;;8311914;28;20168;-66
2021/05/27 21:13:49;;;;;;;6.22;3.33;;;;;;;;;;8311398;28;20462;-67
2021/05/27 21:17:54;;;;;;;5.70;3.20;;;;;;;;;;8329430;28;20371;-66
2021/05/27 21:21:59;;;;;;;18.83;8.02;;;;;;;;;;8329516;28;20454;-66
2021/05/27 21:26:03;;;;;;;17.67;6.82;;;;;;;;;;8332010;28;20393;-66
2021/05/27 21:30:08;;;;;;;27.42;12.40;;;;;;;;;;8329756;28;20048;-66
2021/05/27 21:34:13;;;;;;;16.85;8.68;;;;;;;;;;8330641;28;20377;-66
2021/05/27 21:38:18;;;;;;;16.38;9.23;;;;;;;;;;8328119;28;20052;-66
2021/05/27 21:42:23;;;;;;;22.55;8.88;;;;;;;;;;8329619;28;20354;-66
2021/05/27 21:46:28;;;;;;;21.13;9.93;;;;;;;;;;8327908;28;20481;-67
2021/05/27 21:50:39;;;;;;;15.80;7.25;;;;;;;;;;8328453;28;20363;-66
2021/05/27 21:54:44;;;;;;;12.57;6.25;;;;;;;;;;8330681;28;20379;-67
2021/05/27 21:58:48;;;;;;;11.68;5.32;;;;;;;;;;8329227;28;20363;-66
2021/05/27 22:02:53;;;;;;;11.75;5.75;;;;;;;;;;8310123;28;20375;-66
2021/05/27 22:06:59;;;;;;;7.38;3.75;;;;;;;;;;8328589;28;20074;-66
2021/05/27 22:11:04;;;;;;;7.88;3.80;;;;;;;;;;8329951;28;20358;-66
2021/05/27 22:15:09;;;;;;;7.55;3.70;;;;;;;;;;8328271;28;20604;-67
2021/05/27 22:19:14;;;;;;;8.00;3.67;;;;;;;;;;8328319;28;20454;-66
2021/05/27 22:23:18;;;;;;;6.75;3.40;;;;;;;;;;8309733;28;20370;-67
2021/05/27 22:27:23;;;;;;;7.10;2.97;;;;;;;;;;8310969;28;20480;-67
2021/05/27 22:31:29;;;;;;;9.25;3.25;;;;;;;;;;8327290;28;20439;-66
2021/05/27 22:35:35;;;;;;;8.80;2.55;;;;;;;;;;8327612;28;20475;-67
2021/05/27 22:39:39;;;;;;;7.60;2.75;;;;;;;;;;8327404;28;20066;-66
2021/05/27 22:43:47;;;;;;;10.15;3.17;;;;;;;;;;8326825;28;20486;-66
2021/05/27 22:47:52;;;;;;;5.05;2.45;;;;;;;;;;8326490;28;20366;-67
2021/05/27 22:51:57;;;;;;;4.57;2.70;;;;;;;;;;8326037;28;20471;-66
2021/05/27 22:56:02;;;;;;;5.30;3.08;;;;;;;;;;8328260;28;20344;-66
2021/05/27 23:00:08;;;;;;;6.40;3.10;;;;;;;;;;8293825;28;20382;-67
2021/05/27 23:04:11;;;;;;;9.05;4.05;;;;;;;;;;8326679;28;20630;-67
2021/05/27 23:08:16;;;;;;;7.45;4.45;;;;;;;;;;8325332;28;20051;-66
2021/05/27 23:12:21;;;;;;;16.38;5.35;;;;;;;;;;8325120;28;20048;-67
2021/05/27 23:16:26;;;;;;;8.80;4.47;;;;;;;;;;8308391;28;20405;-66
2021/05/27 23:20:31;;;;;;;7.25;3.92;;;;;;;;;;8325627;28;20478;-66
2021/05/27 23:24:35;;;;;;;8.02;4.30;;;;;;;;;;8326079;28;20480;-66
2021/05/27 23:28:42;;;;;;;6.97;3.42;;;;;;;;;;8326130;28;20378;-66
2021/05/27 23:32:46;;;;;;;5.72;3.60;;;;;;;;;;8307529;28;20056;-66
2021/05/27 23:36:52;;;;;;;9.70;4.28;;;;;;;;;;8324702;28;20078;-66
2021/05/27 23:40:57;;;;;;;7.57;3.47;;;;;;;;;;8324983;28;20383;-66
2021/05/27 23:45:03;;;;;;;9.13;4.03;;;;;;;;;;8324702;28;20495;-66
2021/05/27 23:49:08;;;;;;;9.43;4.03;;;;;;;;;;8324901;28;20451;-66
2021/05/27 23:53:12;;;;;;;8.90;4.20;;;;;;;;;;8326680;28;20383;-66
2021/05/27 23:57:17;;;;;;;9.68;4.30;;;;;;;;;;8325742;28;20386;-66
